DW4435 Weather Reports


Display with metric or nautical units.
time (UTC)temp
F
wind
direction
speed
MPH
gust
MPH
rain 1hr
in
rain 24hr
in
rain mn
in
humidity
%
barometer
mb
20181213031602 36 190 0.0 0.0 0.00 0.00 0.00 86 1024.0
20181213030121 37 190 0.0 1.0 0.00 0.00 0.00 85 1023.9
20181213024556 38 225 0.0 1.0 0.00 0.00 0.00 84 1024.0
20181213023059 38 215 1.0 2.0 0.00 0.00 0.00 82 1023.8
20181213021609 39 155 1.0 3.0 0.00 0.00 0.00 81 1023.9
20181213020043 39 188 1.0 4.0 0.00 0.00 0.00 79 1023.9
20181213014605 39 177 1.0 4.0 0.00 0.00 0.00 77 1023.9
20181213013120 39 210 2.0 4.0 0.00 0.00 0.00 76 1023.8
20181213011554 39 160 2.0 0.0 0.00 0.00 0.00 77 1023.7
20181213010124 39 204 0.0 2.0 0.00 0.00 0.00 76 1023.7
20181213004632 39 155 0.0 1.0 0.00 0.00 0.00 78 1023.6
20181213003040 39 156 0.0 1.0 0.00 0.00 0.00 78 1023.7
20181213001624 38 148 0.0 1.0 0.00 0.00 0.00 79 1023.8
20181213000100 38 222 0.0 2.0 0.00 0.00 0.00 83 1023.6
20181212234554 37 225 0.0 0.0 0.00 0.00 0.00 87 1023.4
20181212233051 37 225 0.0 1.0 0.00 0.00 0.00 87 1023.5
20181212231617 38 225 0.0 1.0 0.00 0.00 0.00 86 1023.6
20181212230107 38 224 0.0 0.0 0.00 0.00 0.00 83 1023.2
20181212224538 39 224 0.0 1.0 0.00 0.00 0.00 80 1023.2
20181212223049 41 224 0.0 1.0 0.00 0.00 0.00 76 1023.0
20181212221641 41 159 0.0 0.0 0.00 0.00 0.00 72 1023.1
20181212220104 42 211 0.0 1.0 0.00 0.00 0.00 68 1023.1
20181212214541 44 217 0.0 1.0 0.00 0.00 0.00 65 1022.9
20181212213127 45 218 0.0 2.0 0.00 0.00 0.00 58 1023.2
20181212211622 47 245 2.0 3.0 0.00 0.00 0.00 56 1023.1
20181212210059 48 211 2.0 4.0 0.00 0.00 0.00 53 1022.7
20181212204622 50 219 2.0 5.0 0.00 0.00 0.00 48 1022.4
20181212203031 50 233 3.0 9.0 0.00 0.00 0.00 50 1022.2
20181212201613 51 174 2.0 5.0 0.00 0.00 0.00 47 1022.2
20181212200034 50 193 3.0 7.0 0.00 0.00 0.00 47 1022.0
20181212194531 50 174 2.0 5.0 0.00 0.00 0.00 46 1021.8
20181212193029 50 197 1.0 3.0 0.00 0.00 0.00 44 1021.8
20181212191519 49 211 0.0 3.0 0.00 0.00 0.00 43 1021.5
20181212190023 50 114 1.0 3.0 0.00 0.00 0.00 43 1021.7
20181212184526 50 167 0.0 3.0 0.00 0.00 0.00 44 1021.6
20181212183018 50 224 0.0 1.0 0.00 0.00 0.00 42 1021.7
20181212181531 50 154 2.0 5.0 0.00 0.00 0.00 46 1021.8
20181212180014 49 176 1.0 3.0 0.00 0.00 0.00 42 1022.1
20181212174551 49 48 1.0 3.0 0.00 0.00 0.00 42 1022.4
20181212173036 49 110 1.0 4.0 0.00 0.00 0.00 46 1022.4
20181212171509 48 280 1.0 4.0 0.00 0.00 0.00 44 1022.7
20181212170011 49 276 0.0 2.0 0.00 0.00 0.00 42 1022.9
20181212164503 48 211 0.0 4.0 0.00 0.00 0.00 46 1023.0
20181212163242 47 75 0.0 2.0 0.00 0.00 0.00 45 1023.2
20181212161755 47 131 1.0 4.0 0.00 0.00 0.00 48 1023.3
20181212160234 46 107 1.0 2.0 0.00 0.00 0.00 52 1023.8
20181212154623 45 67 1.0 2.0 0.00 0.00 0.00 52 1023.9
20181212153139 45 103 2.0 5.0 0.00 0.00 0.00 53 1024.1
20181212151643 43 151 0.0 2.0 0.00 0.00 0.00 60 1023.8
20181212150111 41 231 1.0 2.0 0.00 0.00 0.00 67 1024.2
20181212144558 39 162 0.0 2.0 0.00 0.00 0.00 79 1024.0
20181212143111 37 193 0.0 1.0 0.00 0.00 0.00 84 1024.0
20181212141601 34 241 0.0 1.0 0.00 0.00 0.00 87 1024.0
20181212140042 33 240 0.0 1.0 0.00 0.00 0.00 86 1023.9
20181212131533 31 248 0.0 0.0 0.00 0.00 0.00 94 1023.5
20181212130034 29 248 0.0 0.0 0.00 0.00 0.00 94 1023.4
20181212124523 29 248 0.0 0.0 0.00 0.00 0.00 95 1023.3
20181212123052 28 248 0.0 1.0 0.00 0.00 0.00 96 1023.1
20181212121534 27 248 0.0 1.0 0.00 0.00 0.00 95 1022.8
20181212120013 27 248 0.0 0.0 0.00 0.00 0.00 95 1022.6
20181212114540 27 248 0.0 1.0 0.00 0.00 0.00 96 1022.5
20181212113006 27 250 0.0 1.0 0.00 0.00 0.00 96 1022.0
20181212111520 26 250 0.0 0.0 0.00 0.00 0.00 95 1021.9
20181212110005 27 250 0.0 1.0 0.00 0.00 0.00 95 1021.9
20181212104513 27 250 0.0 1.0 0.00 0.00 0.00 96 1021.9
20181212103014 26 250 0.0 0.0 0.00 0.00 0.00 95 1021.8
20181212101638 26 250 0.0 1.0 0.00 0.00 0.00 95 1021.5
20181212100119 26 250 0.0 1.0 0.00 0.00 0.00 95 1021.3
20181212094713 25 250 0.0 0.0 0.00 0.00 0.00 94 1021.2
20181212093121 26 250 0.0 1.0 0.00 0.00 0.00 93 1021.1
20181212091625 26 260 0.0 1.0 0.00 0.00 0.00 94 1021.1
20181212090216 26 262 0.0 1.0 0.00 0.00 0.00 93 1020.9
20181212084641 27 262 0.0 1.0 0.00 0.00 0.00 93 1020.6
20181212083140 27 262 0.0 3.0 0.00 0.00 0.00 95 1020.5
20181212081556 25 238 0.0 2.0 0.00 0.00 0.00 95 1020.9
20181212080211 26 166 0.0 0.0 0.00 0.00 0.00 95 1020.7
20181212074630 25 166 0.0 0.0 0.00 0.00 0.00 95 1020.0
20181212073107 25 166 0.0 0.0 0.00 0.00 0.00 94 1019.6
20181212071639 25 166 0.0 0.0 0.00 0.00 0.00 93 1019.2
20181212070038 26 166 0.0 1.0 0.00 0.00 0.00 92 1019.2
20181212064538 27 166 0.0 1.0 0.00 0.00 0.00 91 1018.8
20181212063051 27 166 0.0 0.0 0.00 0.00 0.00 92 1018.8
20181212061534 27 166 0.0 0.0 0.00 0.00 0.00 92 1018.7
20181212060042 27 219 0.0 1.0 0.00 0.00 0.00 91 1018.3
20181212054546 27 218 0.0 1.0 0.00 0.00 0.00 90 1018.4
20181212053038 28 219 0.0 1.0 0.00 0.00 0.00 89 1018.6
20181212051530 29 219 0.0 1.0 0.00 0.00 0.00 87 1018.5
20181212050022 30 203 0.0 2.0 0.00 0.00 0.00 86 1018.4
20181212044544 31 228 0.0 3.0 0.00 0.00 0.00 85 1018.6
20181212043029 31 248 1.0 4.0 0.00 0.00 0.00 85 1018.4
20181212041521 30 225 0.0 3.0 0.00 0.00 0.00 88 1018.6
20181212040031 29 228 0.0 1.0 0.00 0.00 0.00 90 1018.7
20181212034515 29 245 0.0 1.0 0.00 0.00 0.00 92 1018.8
20181212033019 28 240 0.0 2.0 0.00 0.00 0.00 93 1018.7